createdAt,value
2022-10-28T00:00:18.958Z,0.00
2022-10-28T00:01:19.095Z,0.00
2022-10-28T00:02:18.933Z,0.00
2022-10-28T00:03:18.922Z,0.00
2022-10-28T00:04:19.106Z,0.00
2022-10-28T00:05:18.944Z,0.00
2022-10-28T00:06:18.849Z,0.00
2022-10-28T00:07:18.833Z,0.00
2022-10-28T00:08:18.897Z,0.00
2022-10-28T00:09:18.821Z,0.00
2022-10-28T00:10:18.812Z,0.00
2022-10-28T00:11:18.839Z,0.00
2022-10-28T00:12:18.785Z,0.00
2022-10-28T00:13:18.767Z,0.00
2022-10-28T00:14:18.755Z,0.00
2022-10-28T00:15:18.756Z,0.00
2022-10-28T00:16:18.738Z,0.00
2022-10-28T00:17:18.818Z,0.00
2022-10-28T00:18:18.713Z,0.00
2022-10-28T00:19:18.709Z,0.00
2022-10-28T00:20:18.707Z,0.00
2022-10-28T00:21:18.677Z,0.00
2022-10-28T00:22:18.668Z,0.00
2022-10-28T00:23:18.709Z,0.00
2022-10-28T00:24:18.656Z,0.00
2022-10-28T00:25:18.648Z,0.00
2022-10-28T00:26:18.628Z,0.00
2022-10-28T00:27:18.609Z,0.00
2022-10-28T00:28:18.601Z,0.00
2022-10-28T00:29:18.660Z,0.00
2022-10-28T00:30:18.624Z,0.00
2022-10-28T00:31:18.575Z,0.00
2022-10-28T00:32:18.562Z,0.00
2022-10-28T00:33:18.542Z,0.00
2022-10-28T00:34:18.558Z,0.00
2022-10-28T00:35:18.599Z,0.00
2022-10-28T00:36:18.535Z,0.00
2022-10-28T00:37:18.500Z,0.00
2022-10-28T00:38:18.490Z,0.00
2022-10-28T00:39:18.477Z,0.00
2022-10-28T00:40:18.467Z,0.00
2022-10-28T00:41:18.517Z,0.00
2022-10-28T00:42:18.443Z,0.00
2022-10-28T00:43:18.471Z,0.00
2022-10-28T00:44:18.422Z,0.00
2022-10-28T00:45:18.420Z,0.00
2022-10-28T00:46:18.502Z,0.00
2022-10-28T00:47:18.427Z,0.00
2022-10-28T00:48:18.378Z,0.00
2022-10-28T00:49:18.365Z,0.00
2022-10-28T00:50:18.361Z,0.00
2022-10-28T00:51:18.342Z,0.00
2022-10-28T00:52:18.363Z,0.00
2022-10-28T00:53:18.376Z,0.00
2022-10-28T00:54:18.312Z,0.00
2022-10-28T00:55:18.301Z,0.00
2022-10-28T00:56:18.364Z,0.00
2022-10-28T00:57:18.275Z,0.00
2022-10-28T00:58:18.274Z,0.00
2022-10-28T00:59:18.308Z,0.00
2022-10-28T01:00:18.248Z,0.00
2022-10-28T01:01:18.260Z,0.00
2022-10-28T01:02:18.409Z,0.00
2022-10-28T01:03:18.214Z,0.00
2022-10-28T01:04:18.198Z,0.00
2022-10-28T01:05:18.250Z,0.00
2022-10-28T01:06:18.198Z,0.00
2022-10-28T01:07:18.163Z,0.00
2022-10-28T01:08:18.251Z,0.00
2022-10-28T01:09:18.163Z,0.00
2022-10-28T01:10:18.131Z,0.00
2022-10-28T01:11:18.197Z,0.00
2022-10-28T01:12:18.109Z,0.00
2022-10-28T01:13:18.096Z,0.00
2022-10-28T01:14:18.098Z,0.00
2022-10-28T01:15:18.084Z,0.00
2022-10-28T01:16:18.064Z,0.00
2022-10-28T01:17:18.133Z,0.00
2022-10-28T01:18:18.042Z,0.00
2022-10-28T01:19:18.041Z,0.00
2022-10-28T01:20:18.032Z,0.00
2022-10-28T01:21:18.005Z,0.00
2022-10-28T01:22:18.025Z,0.00
2022-10-28T01:23:18.047Z,0.00
2022-10-28T01:24:17.992Z,0.00
2022-10-28T01:25:17.982Z,0.00
2022-10-28T01:26:17.950Z,0.00
2022-10-28T01:27:17.942Z,0.00
2022-10-28T01:28:17.929Z,0.00
2022-10-28T01:29:17.942Z,0.00
2022-10-28T01:30:17.909Z,0.00
2022-10-28T01:31:17.912Z,0.00
2022-10-28T01:32:17.885Z,0.00
2022-10-28T01:33:17.876Z,0.00
2022-10-28T01:34:17.944Z,0.00
2022-10-28T01:35:17.899Z,0.00
2022-10-28T01:36:17.858Z,0.00
2022-10-28T01:37:17.833Z,0.00
2022-10-28T01:38:17.834Z,0.00
2022-10-28T01:39:17.853Z,0.00
2022-10-28T01:40:17.867Z,0.00
2022-10-28T01:41:17.799Z,0.00
2022-10-28T01:42:17.783Z,0.00
2022-10-28T01:43:17.765Z,0.00
2022-10-28T01:44:17.752Z,0.00
2022-10-28T01:45:17.828Z,0.00
2022-10-28T01:46:17.732Z,0.00
2022-10-28T01:47:17.723Z,0.00
2022-10-28T01:48:17.710Z,0.00
2022-10-28T01:49:17.700Z,0.00
2022-10-28T01:50:17.694Z,0.00
2022-10-28T01:51:17.789Z,0.00
2022-10-28T01:52:17.665Z,0.00
2022-10-28T01:53:17.658Z,0.00
2022-10-28T01:54:17.643Z,0.00
2022-10-28T01:55:17.634Z,0.00
2022-10-28T01:56:17.641Z,0.00
2022-10-28T01:57:17.692Z,0.00
2022-10-28T01:58:17.610Z,0.00
2022-10-28T01:59:17.591Z,0.00
2022-10-28T02:00:17.577Z,0.00
2022-10-28T02:01:17.689Z,0.00
2022-10-28T02:02:17.555Z,0.00
2022-10-28T02:03:17.603Z,0.00
2022-10-28T02:04:17.533Z,0.00
2022-10-28T02:05:17.521Z,0.00
2022-10-28T02:06:17.510Z,0.00
2022-10-28T02:07:17.501Z,0.00
2022-10-28T02:08:17.484Z,0.00
2022-10-28T02:09:17.547Z,0.00
2022-10-28T02:10:17.464Z,0.00
2022-10-28T02:11:17.455Z,0.00
2022-10-28T02:12:17.462Z,0.00
2022-10-28T02:13:17.432Z,0.00
2022-10-28T02:14:17.432Z,0.00
2022-10-28T02:15:17.431Z,0.00
2022-10-28T02:16:17.397Z,0.00
2022-10-28T02:17:17.386Z,0.00
2022-10-28T02:18:17.374Z,0.00
2022-10-28T02:19:17.410Z,0.00
2022-10-28T02:20:17.350Z,0.00
2022-10-28T02:21:17.397Z,0.00
2022-10-28T02:22:17.329Z,0.00
2022-10-28T02:23:17.321Z,0.00
2022-10-28T02:24:17.306Z,0.00
2022-10-28T02:25:17.318Z,0.00
2022-10-28T02:26:17.284Z,0.00
2022-10-28T02:27:17.343Z,0.00
2022-10-28T02:28:17.282Z,0.00
2022-10-28T02:29:17.254Z,0.00
2022-10-28T02:30:17.249Z,0.00
2022-10-28T02:31:17.243Z,0.00
2022-10-28T02:32:17.217Z,0.00
2022-10-28T02:33:17.247Z,0.00
2022-10-28T02:34:17.195Z,0.00
2022-10-28T02:35:17.198Z,0.00
2022-10-28T02:36:17.186Z,0.00
2022-10-28T02:37:17.161Z,0.00
2022-10-28T02:38:17.152Z,0.00
2022-10-28T02:39:17.206Z,0.00
2022-10-28T02:40:17.129Z,0.00
2022-10-28T02:41:17.150Z,0.00
2022-10-28T02:42:17.107Z,0.00
2022-10-28T02:43:17.094Z,0.00
2022-10-28T02:44:17.164Z,0.00
2022-10-28T02:45:17.159Z,0.00
2022-10-28T02:46:17.061Z,0.00
2022-10-28T02:47:17.047Z,0.00
2022-10-28T02:48:17.039Z,0.00
2022-10-28T02:49:17.026Z,0.00
2022-10-28T02:50:17.017Z,0.00
2022-10-28T02:51:17.074Z,0.00
2022-10-28T02:52:16.993Z,0.00
2022-10-28T02:53:17.037Z,0.00
2022-10-28T02:54:16.971Z,0.00
2022-10-28T02:55:16.958Z,0.00
2022-10-28T02:56:16.951Z,0.00
2022-10-28T02:57:16.990Z,0.00
2022-10-28T02:58:16.928Z,0.00
2022-10-28T02:59:16.915Z,0.00
2022-10-28T03:00:16.924Z,0.00
2022-10-28T03:01:16.999Z,0.00
2022-10-28T03:02:16.986Z,0.00
2022-10-28T03:03:16.938Z,0.00
2022-10-28T03:04:16.859Z,0.00
2022-10-28T03:05:16.850Z,0.00
2022-10-28T03:06:16.882Z,0.00
2022-10-28T03:07:16.824Z,0.00
2022-10-28T03:08:16.818Z,0.00
2022-10-28T03:09:16.865Z,0.00
2022-10-28T03:10:16.792Z,0.00
2022-10-28T03:11:16.779Z,0.00
2022-10-28T03:12:16.769Z,0.00
2022-10-28T03:13:16.756Z,0.00
2022-10-28T03:14:16.759Z,0.00
2022-10-28T03:15:16.804Z,0.00
2022-10-28T03:16:16.743Z,0.00
2022-10-28T03:17:16.713Z,0.00
2022-10-28T03:18:16.716Z,0.00
2022-10-28T03:19:16.691Z,0.00
2022-10-28T03:20:16.681Z,0.00
2022-10-28T03:21:16.731Z,0.00
2022-10-28T03:22:16.656Z,0.00
2022-10-28T03:23:16.644Z,0.00
2022-10-28T03:24:16.647Z,0.00
2022-10-28T03:25:16.623Z,0.00
2022-10-28T03:26:16.614Z,0.00
2022-10-28T03:27:16.653Z,0.00
2022-10-28T03:28:16.594Z,0.00
2022-10-28T03:29:16.579Z,0.00
2022-10-28T03:30:16.580Z,0.00
2022-10-28T03:31:16.553Z,0.00
2022-10-28T03:32:16.624Z,0.00
2022-10-28T03:33:16.695Z,0.00
2022-10-28T03:34:16.523Z,0.00
2022-10-28T03:35:16.510Z,0.00
2022-10-28T03:36:16.508Z,0.00
2022-10-28T03:37:16.487Z,0.00
2022-10-28T03:38:16.478Z,0.00
2022-10-28T03:39:16.557Z,0.00
2022-10-28T03:40:16.475Z,0.00
2022-10-28T03:41:16.444Z,0.00
2022-10-28T03:42:16.436Z,0.00
2022-10-28T03:43:16.433Z,0.00
2022-10-28T03:44:16.412Z,0.00
2022-10-28T03:45:16.487Z,0.00
2022-10-28T03:46:16.390Z,0.00
2022-10-28T03:47:16.380Z,0.00
2022-10-28T03:48:16.398Z,0.00
2022-10-28T03:49:16.355Z,0.00
2022-10-28T03:50:16.346Z,0.00
2022-10-28T03:51:16.389Z,0.00
2022-10-28T03:52:16.323Z,0.00
2022-10-28T03:53:16.311Z,0.00
2022-10-28T03:54:16.391Z,0.00
2022-10-28T03:55:16.286Z,0.00
2022-10-28T03:56:16.279Z,0.00
2022-10-28T03:57:16.323Z,0.00
2022-10-28T03:58:16.257Z,0.00
2022-10-28T03:59:19.269Z,0.00
2022-10-28T04:00:16.245Z,0.00
2022-10-28T04:01:16.330Z,0.00
2022-10-28T04:02:16.375Z,0.00
2022-10-28T04:03:16.247Z,0.00
2022-10-28T04:04:16.229Z,0.00
2022-10-28T04:05:16.177Z,0.00
2022-10-28T04:06:16.173Z,0.00
2022-10-28T04:07:16.153Z,0.00
2022-10-28T04:08:16.146Z,0.00
2022-10-28T04:09:16.218Z,0.00
2022-10-28T04:10:16.229Z,0.00
2022-10-28T04:11:16.111Z,0.00
2022-10-28T04:12:16.099Z,0.00
2022-10-28T04:13:16.085Z,0.00
2022-10-28T04:14:16.077Z,0.00
2022-10-28T04:15:16.126Z,0.00
2022-10-28T04:16:16.066Z,0.00
2022-10-28T04:17:16.048Z,0.00
2022-10-28T04:18:16.030Z,0.00
2022-10-28T04:19:16.019Z,0.00
2022-10-28T04:20:16.029Z,0.00
2022-10-28T04:21:16.019Z,0.00
2022-10-28T04:22:16.003Z,0.00
2022-10-28T04:23:15.977Z,0.00
2022-10-28T04:24:15.965Z,0.00
2022-10-28T04:26:15.942Z,0.00
2022-10-28T04:27:15.962Z,0.00
2022-10-28T04:28:15.930Z,0.00
2022-10-28T04:29:15.907Z,0.00
2022-10-28T04:30:15.897Z,0.00
2022-10-28T04:31:15.883Z,0.00
2022-10-28T04:32:15.888Z,0.00
2022-10-28T04:33:15.921Z,0.00
2022-10-28T04:34:15.860Z,0.00
2022-10-28T04:35:15.840Z,0.00
2022-10-28T04:36:15.849Z,0.00
2022-10-28T04:37:20.416Z,0.00
2022-10-28T04:38:15.871Z,0.00
2022-10-28T04:39:15.861Z,0.00
2022-10-28T04:40:15.788Z,0.00
2022-10-28T04:41:15.780Z,0.00
2022-10-28T04:42:15.775Z,0.00
2022-10-28T04:43:15.800Z,0.00
2022-10-28T04:44:15.747Z,0.00
2022-10-28T04:45:15.754Z,0.00
2022-10-28T04:46:15.756Z,0.00
2022-10-28T04:47:15.746Z,0.00
2022-10-28T04:48:15.709Z,0.00
2022-10-28T04:49:15.682Z,0.00
2022-10-28T04:50:15.677Z,0.00
2022-10-28T04:51:15.753Z,0.00
2022-10-28T04:52:16.020Z,0.00
2022-10-28T04:53:15.641Z,0.00
2022-10-28T04:54:15.641Z,0.00
2022-10-28T04:55:15.617Z,0.00
2022-10-28T04:56:15.605Z,0.00
2022-10-28T04:57:15.660Z,0.00
2022-10-28T04:58:15.582Z,0.00
2022-10-28T04:59:15.570Z,0.00
2022-10-28T05:00:15.571Z,0.00
2022-10-28T05:01:15.694Z,0.00
2022-10-28T05:02:15.623Z,0.00
2022-10-28T05:03:15.575Z,0.00
2022-10-28T05:04:15.623Z,0.00
2022-10-28T05:06:15.494Z,0.00
2022-10-28T05:07:17.614Z,0.00
2022-10-28T05:08:15.491Z,0.00
2022-10-28T05:09:15.529Z,0.00
2022-10-28T05:10:15.476Z,0.00
2022-10-28T05:11:15.437Z,0.00
2022-10-28T05:12:15.429Z,0.00
2022-10-28T05:13:15.430Z,0.00
2022-10-28T05:14:15.407Z,0.00
2022-10-28T05:15:15.456Z,0.00
2022-10-28T05:16:15.399Z,0.00
2022-10-28T05:17:15.370Z,0.00
2022-10-28T05:18:15.369Z,0.00
2022-10-28T05:19:15.385Z,0.00
2022-10-28T05:20:15.338Z,4.00
2022-10-28T05:21:15.405Z,0.00
2022-10-28T05:22:15.320Z,0.00
2022-10-28T05:23:15.315Z,4.00
2022-10-28T05:24:15.312Z,0.00
2022-10-28T05:25:15.282Z,4.00
2022-10-28T05:26:15.271Z,4.00
2022-10-28T05:27:15.327Z,4.00
2022-10-28T05:28:15.249Z,8.00
2022-10-28T05:29:15.247Z,8.00
2022-10-28T05:30:15.228Z,8.00
2022-10-28T05:31:15.226Z,12.00
2022-10-28T05:32:15.206Z,12.00
2022-10-28T05:33:15.283Z,16.00
2022-10-28T05:34:15.181Z,20.00
2022-10-28T05:35:15.172Z,24.00
2022-10-28T05:36:15.160Z,28.00
2022-10-28T05:37:15.145Z,36.00
2022-10-28T05:38:15.136Z,44.00
2022-10-28T05:39:15.189Z,56.00
2022-10-28T05:40:15.143Z,64.00
2022-10-28T05:41:15.130Z,80.00
2022-10-28T05:42:15.092Z,100.00
2022-10-28T05:43:15.089Z,120.00
2022-10-28T05:44:15.069Z,140.00
2022-10-28T05:45:15.200Z,168.00
2022-10-28T05:46:15.047Z,204.00
2022-10-28T05:47:15.038Z,244.00
2022-10-28T05:48:15.038Z,288.00
2022-10-28T05:49:15.011Z,336.00
2022-10-28T05:50:15.005Z,396.00
2022-10-28T05:51:15.054Z,456.00
2022-10-28T05:52:14.984Z,524.00
2022-10-28T05:53:14.969Z,596.00
2022-10-28T05:54:14.973Z,672.00
2022-10-28T05:55:14.946Z,756.00
2022-10-28T05:56:14.954Z,836.00
2022-10-28T05:57:14.973Z,916.00
2022-10-28T05:58:14.914Z,996.00
2022-10-28T05:59:14.901Z,1068.00
2022-10-28T06:00:14.903Z,1132.00
2022-10-28T06:01:14.928Z,1204.00
2022-10-28T06:02:14.877Z,1268.00
2022-10-28T06:03:15.089Z,1316.00
2022-10-28T06:04:14.915Z,1368.00
2022-10-28T06:05:14.852Z,1436.00
2022-10-28T06:06:14.836Z,1516.00
2022-10-28T06:07:14.815Z,1612.00
2022-10-28T06:08:14.812Z,1720.00
2022-10-28T06:09:14.867Z,1852.00
2022-10-28T06:10:14.789Z,1988.00
2022-10-28T06:11:13.259Z,2120.00
2022-10-28T06:12:13.258Z,2240.00
2022-10-28T06:13:13.310Z,2348.00
2022-10-28T06:14:13.207Z,2448.00
2022-10-28T06:15:13.196Z,2556.00
2022-10-28T06:16:13.247Z,2672.00
2022-10-28T06:17:13.187Z,2792.00
2022-10-28T06:18:16.653Z,2904.00
2022-10-28T06:19:14.155Z,3004.00
2022-10-28T06:20:13.148Z,3104.00
2022-10-28T06:21:13.194Z,3192.00
2022-10-28T06:22:13.141Z,3284.00
2022-10-28T06:23:13.117Z,3368.00
2022-10-28T06:24:13.112Z,3460.00
2022-10-28T06:25:13.096Z,3564.00
2022-10-28T06:26:13.093Z,3672.00
2022-10-28T06:27:13.141Z,3784.00
2022-10-28T06:28:13.101Z,3904.00
2022-10-28T06:29:13.074Z,4020.00
2022-10-28T06:30:13.050Z,4112.00
2022-10-28T06:31:13.038Z,4184.00
2022-10-28T06:32:13.029Z,4224.00
2022-10-28T06:33:13.101Z,4256.00
2022-10-28T06:34:13.017Z,4268.00
2022-10-28T06:35:13.011Z,4280.00
2022-10-28T06:36:12.993Z,4312.00
2022-10-28T06:37:12.983Z,4356.00
2022-10-28T06:38:12.975Z,4420.00
2022-10-28T06:39:13.053Z,4476.00
2022-10-28T06:40:12.955Z,4520.00
2022-10-28T06:41:12.967Z,4560.00
2022-10-28T06:42:12.930Z,4624.00
2022-10-28T06:43:12.931Z,4720.00
2022-10-28T06:44:13.775Z,4836.00
2022-10-28T06:45:12.934Z,4968.00
2022-10-28T06:46:12.898Z,5108.00
2022-10-28T06:47:14.407Z,5244.00
2022-10-28T06:48:14.385Z,5380.00
2022-10-28T06:49:14.372Z,5520.00
2022-10-28T06:50:14.365Z,5652.00
2022-10-28T06:51:14.393Z,5768.00
2022-10-28T06:52:14.355Z,5848.00
2022-10-28T06:53:14.334Z,5896.00
2022-10-28T06:54:14.322Z,5944.00
2022-10-28T06:55:14.315Z,6016.00
2022-10-28T06:56:14.302Z,6100.00
2022-10-28T06:57:14.391Z,6212.00
2022-10-28T06:58:14.298Z,6332.00
2022-10-28T06:59:14.281Z,6464.00
2022-10-28T07:00:14.263Z,6608.00
2022-10-28T07:01:14.284Z,6744.00
2022-10-28T07:02:14.381Z,6892.00
2022-10-28T07:03:14.312Z,7056.00
2022-10-28T07:04:14.236Z,7240.00
2022-10-28T07:05:14.231Z,7436.00
2022-10-28T07:07:14.198Z,7852.00
2022-10-28T07:08:14.185Z,8036.00
2022-10-28T07:09:14.344Z,8188.00
2022-10-28T07:10:14.162Z,8328.00
2022-10-28T07:11:14.168Z,8464.00
2022-10-28T07:12:14.260Z,8592.00
2022-10-28T07:13:14.139Z,8704.00
2022-10-28T07:14:14.134Z,8800.00
2022-10-28T07:15:14.183Z,8892.00
2022-10-28T07:16:14.104Z,9000.00
2022-10-28T07:17:14.113Z,9112.00
2022-10-28T07:18:14.083Z,9228.00
2022-10-28T07:19:14.086Z,9340.00
2022-10-28T07:20:14.061Z,9452.00
2022-10-28T07:21:14.073Z,9552.00
2022-10-28T07:22:14.050Z,9632.00
2022-10-28T07:23:14.034Z,9696.00
2022-10-28T07:24:14.135Z,9744.00
2022-10-28T07:25:14.019Z,9768.00
2022-10-28T07:26:14.006Z,9780.00
2022-10-28T07:27:14.044Z,9828.00
2022-10-28T07:28:13.980Z,9876.00
2022-10-28T07:29:13.972Z,9920.00
2022-10-28T07:30:13.963Z,9984.00
2022-10-28T07:31:13.953Z,10012.00
2022-10-28T07:32:13.942Z,10036.00
2022-10-28T07:33:13.999Z,10068.00
2022-10-28T07:34:13.920Z,10096.00
2022-10-28T07:35:13.915Z,10152.00
2022-10-28T07:36:13.898Z,10244.00
2022-10-28T07:37:13.890Z,10332.00
2022-10-28T07:38:13.879Z,10416.00
2022-10-28T07:39:13.930Z,10492.00
2022-10-28T07:40:13.857Z,10584.00
2022-10-28T07:41:13.854Z,10676.00
2022-10-28T07:42:13.836Z,10856.00
2022-10-28T07:43:13.825Z,11148.00
2022-10-28T07:44:13.854Z,13608.00
2022-10-28T07:45:13.854Z,32608.00
2022-10-28T07:46:13.802Z,52608.00
2022-10-28T07:47:13.782Z,56416.00
2022-10-28T07:48:13.771Z,55424.00
2022-10-28T07:49:13.784Z,53952.00
2022-10-28T07:50:13.750Z,54176.00
2022-10-28T07:51:13.803Z,54496.00
2022-10-28T07:52:13.738Z,55840.00
2022-10-28T07:54:13.701Z,56672.00
2022-10-28T07:55:13.692Z,58752.00
2022-10-28T07:56:13.926Z,58208.00
2022-10-28T07:57:13.706Z,59200.00
2022-10-28T07:58:13.670Z,61088.00
2022-10-28T07:59:13.642Z,64128.00
2022-10-28T08:00:13.628Z,65664.00
2022-10-28T08:01:13.776Z,66528.00
2022-10-28T08:02:13.718Z,67520.00
2022-10-28T08:03:13.643Z,70688.00
2022-10-28T08:04:13.578Z,69696.00
2022-10-28T08:05:13.590Z,71936.00
2022-10-28T08:06:13.556Z,68832.00
2022-10-28T08:07:13.544Z,63680.00
2022-10-28T08:08:13.540Z,62208.00
2022-10-28T08:09:13.584Z,63680.00
2022-10-28T08:10:13.515Z,65120.00
2022-10-28T08:11:13.490Z,63616.00
2022-10-28T08:12:13.584Z,62016.00
2022-10-28T08:13:13.474Z,59424.00
2022-10-28T08:14:13.452Z,63232.00
2022-10-28T08:15:13.475Z,65664.00
2022-10-28T08:16:13.426Z,64864.00
2022-10-28T08:17:13.418Z,64736.00
2022-10-28T08:18:13.418Z,66016.00
2022-10-28T08:19:13.391Z,66880.00
2022-10-28T08:20:13.380Z,68000.00
2022-10-28T08:21:13.396Z,69472.00
2022-10-28T08:22:13.356Z,68832.00
2022-10-28T08:23:13.347Z,67712.00
2022-10-28T08:24:13.353Z,68032.00
2022-10-28T08:25:13.328Z,69824.00
2022-10-28T08:26:13.326Z,66944.00
2022-10-28T08:27:13.345Z,68224.00
2022-10-28T08:28:13.289Z,67968.00
2022-10-28T08:29:13.281Z,69024.00
2022-10-28T08:30:13.279Z,73056.00
2022-10-28T08:31:13.259Z,77632.00
2022-10-28T08:32:13.247Z,78080.00
2022-10-28T08:33:13.275Z,77024.00
2022-10-28T08:34:13.297Z,77056.00
2022-10-28T08:35:13.213Z,81472.00
2022-10-28T08:36:13.212Z,82400.00
2022-10-28T08:37:13.256Z,85760.00
2022-10-28T08:38:13.179Z,85088.00
2022-10-28T08:39:13.199Z,78848.00
2022-10-28T08:40:13.172Z,73056.00
2022-10-28T08:41:13.148Z,72608.00
2022-10-28T08:42:13.137Z,78304.00
2022-10-28T08:43:13.134Z,78112.00
2022-10-28T08:44:13.114Z,73312.00
2022-10-28T08:45:15.606Z,75264.00
2022-10-28T08:46:13.108Z,77920.00
2022-10-28T08:47:13.097Z,73760.00
2022-10-28T08:48:13.073Z,70336.00
2022-10-28T08:49:13.063Z,68864.00
2022-10-28T08:50:13.051Z,71936.00
2022-10-28T08:51:13.074Z,74048.00
2022-10-28T08:52:13.028Z,76640.00
2022-10-28T08:53:13.063Z,79008.00
2022-10-28T08:54:13.009Z,79360.00
2022-10-28T08:55:12.999Z,79456.00
2022-10-28T08:56:12.984Z,81696.00
2022-10-28T08:57:17.796Z,80832.00
2022-10-28T08:58:13.974Z,82816.00
2022-10-28T08:59:12.955Z,81568.00
2022-10-28T09:00:12.942Z,80160.00
2022-10-28T09:01:13.071Z,75648.00
2022-10-28T09:02:12.931Z,73216.00
2022-10-28T09:03:12.956Z,71104.00
2022-10-28T09:04:12.900Z,75232.00
2022-10-28T09:05:12.889Z,77472.00
2022-10-28T09:06:12.878Z,82880.00
2022-10-28T09:07:12.887Z,85408.00
2022-10-28T09:08:12.856Z,84576.00
2022-10-28T09:09:12.876Z,84832.00
2022-10-28T09:10:12.836Z,79648.00
2022-10-28T09:11:12.829Z,72704.00
2022-10-28T09:12:12.813Z,71424.00
2022-10-28T09:13:12.816Z,72224.00
2022-10-28T09:14:12.824Z,73088.00
2022-10-28T09:15:12.784Z,74912.00
2022-10-28T09:16:15.308Z,73856.00
2022-10-28T09:17:12.764Z,76128.00
2022-10-28T09:18:12.761Z,79680.00
2022-10-28T09:19:12.743Z,80256.00
2022-10-28T09:20:12.773Z,79136.00
2022-10-28T09:21:12.720Z,80992.00
2022-10-28T09:22:13.753Z,78400.00
2022-10-28T09:23:12.698Z,75648.00
2022-10-28T09:24:12.683Z,75712.00
2022-10-28T09:25:12.696Z,75680.00
2022-10-28T09:26:12.692Z,76896.00
2022-10-28T09:27:12.653Z,78560.00
2022-10-28T09:28:12.660Z,76448.00
2022-10-28T09:29:12.641Z,72768.00
2022-10-28T09:30:12.619Z,58944.00
2022-10-28T09:31:12.612Z,54208.00
2022-10-28T09:32:12.652Z,62688.00
2022-10-28T09:33:12.588Z,73696.00
2022-10-28T09:34:12.589Z,77856.00
2022-10-28T09:35:12.567Z,75520.00
2022-10-28T09:36:12.553Z,52864.00
2022-10-28T09:37:12.545Z,69184.00
2022-10-28T09:38:12.579Z,66528.00
2022-10-28T09:39:12.534Z,68032.00
2022-10-28T09:40:12.515Z,61856.00
2022-10-28T09:41:12.523Z,65184.00
2022-10-28T09:42:12.490Z,63968.00
2022-10-28T09:43:12.493Z,80256.00
2022-10-28T09:44:12.494Z,46912.00
2022-10-28T09:45:12.473Z,68352.00
2022-10-28T09:46:12.447Z,54976.00
2022-10-28T09:47:12.440Z,61248.00
2022-10-28T09:48:12.428Z,57536.00
2022-10-28T09:49:12.433Z,39776.00
2022-10-28T09:50:12.435Z,35552.00
2022-10-28T09:51:12.396Z,34784.00
2022-10-28T09:52:15.294Z,34656.00
2022-10-28T09:53:12.377Z,34656.00
2022-10-28T09:54:12.364Z,34336.00
2022-10-28T09:55:12.366Z,34336.00
2022-10-28T09:56:12.391Z,35840.00
2022-10-28T09:57:14.961Z,58624.00
2022-10-28T09:58:13.323Z,55904.00
2022-10-28T09:59:12.311Z,43264.00
2022-10-28T10:00:12.310Z,45024.00
2022-10-28T10:01:12.315Z,44064.00
2022-10-28T10:02:12.351Z,48512.00
2022-10-28T10:03:12.269Z,41472.00
2022-10-28T10:04:12.254Z,36192.00
2022-10-28T10:05:16.820Z,32800.00
2022-10-28T10:06:13.230Z,30816.00
2022-10-28T10:07:12.222Z,31360.00
2022-10-28T10:08:12.241Z,31808.00
2022-10-28T10:09:12.202Z,33248.00
2022-10-28T10:10:12.204Z,31136.00
2022-10-28T10:11:12.180Z,31072.00
2022-10-28T10:12:12.169Z,32608.00
2022-10-28T10:13:12.176Z,33760.00
2022-10-28T10:14:12.196Z,36288.00
2022-10-28T10:15:12.152Z,32544.00
2022-10-28T10:16:12.124Z,32576.00
2022-10-28T10:17:12.127Z,44544.00
2022-10-28T10:18:12.118Z,38752.00
2022-10-28T10:19:12.103Z,32960.00
2022-10-28T10:20:12.131Z,34656.00
2022-10-28T10:21:12.071Z,36288.00
2022-10-28T10:22:12.074Z,38432.00
2022-10-28T10:23:12.048Z,46432.00
2022-10-28T10:24:12.036Z,68384.00
2022-10-28T10:25:12.074Z,56192.00
2022-10-28T10:26:12.530Z,86912.00
2022-10-28T10:27:12.005Z,84768.00
2022-10-28T10:28:12.007Z,64160.00
2022-10-28T10:29:12.003Z,59008.00
2022-10-28T10:30:11.973Z,42656.00
2022-10-28T10:31:12.015Z,45408.00
2022-10-28T10:32:11.969Z,56416.00
2022-10-28T10:33:11.941Z,81504.00
2022-10-28T10:34:11.928Z,62080.00
2022-10-28T10:35:11.941Z,87296.00
2022-10-28T10:36:11.910Z,63072.00
2022-10-28T10:37:11.924Z,40160.00
2022-10-28T10:38:11.904Z,69152.00
2022-10-28T10:39:11.875Z,89696.00
2022-10-28T10:40:11.890Z,65888.00
2022-10-28T10:41:11.857Z,79136.00
2022-10-28T10:42:11.846Z,38496.00
2022-10-28T10:43:14.127Z,83648.00
2022-10-28T10:44:11.833Z,68352.00
2022-10-28T10:45:11.831Z,75136.00
2022-10-28T10:46:11.811Z,73760.00
2022-10-28T10:47:11.839Z,73120.00
2022-10-28T10:48:11.778Z,73216.00
2022-10-28T10:49:11.796Z,75840.00
2022-10-28T10:50:11.765Z,74560.00
2022-10-28T10:51:11.746Z,77184.00
2022-10-28T10:52:11.747Z,76576.00
2022-10-28T10:53:11.753Z,75456.00
2022-10-28T10:54:11.713Z,74080.00
2022-10-28T10:55:11.719Z,71200.00
2022-10-28T10:56:11.689Z,70784.00
2022-10-28T10:57:11.685Z,72704.00
2022-10-28T10:58:11.669Z,74944.00
2022-10-28T10:59:11.693Z,76992.00
2022-10-28T11:00:11.672Z,79232.00
2022-10-28T11:01:11.715Z,81824.00
2022-10-28T11:02:11.773Z,84224.00
2022-10-28T11:03:11.616Z,85376.00
2022-10-28T11:04:11.605Z,88288.00
2022-10-28T11:05:11.645Z,89952.00
2022-10-28T11:06:23.171Z,93760.00
2022-10-28T11:07:12.588Z,96160.00
2022-10-28T11:08:11.558Z,93824.00
2022-10-28T11:09:11.551Z,95328.00
2022-10-28T11:10:11.539Z,96768.00
2022-10-28T11:11:11.546Z,96672.00
2022-10-28T11:12:11.530Z,94336.00
2022-10-28T11:13:11.504Z,82240.00
2022-10-28T11:14:11.497Z,50208.00
2022-10-28T11:15:12.394Z,42944.00
2022-10-28T11:16:39.692Z,61824.00
2022-10-28T11:17:40.693Z,63584.00
2022-10-28T11:18:11.453Z,57856.00
2022-10-28T11:19:11.443Z,63072.00
2022-10-28T11:20:11.430Z,81472.00
2022-10-28T11:21:11.553Z,99200.00
2022-10-28T11:22:11.412Z,98400.00
2022-10-28T11:23:11.406Z,36320.00
2022-10-28T11:24:11.387Z,62720.00
2022-10-28T11:25:11.376Z,89344.00
2022-10-28T11:26:11.365Z,86912.00
2022-10-28T11:27:11.375Z,86816.00
2022-10-28T11:28:11.346Z,85376.00
2022-10-28T11:29:11.354Z,86624.00
2022-10-28T11:30:11.322Z,85344.00
2022-10-28T11:31:11.312Z,84896.00
2022-10-28T11:32:11.318Z,84576.00
2022-10-28T11:33:30.964Z,88960.00
2022-10-28T11:34:12.287Z,90272.00
2022-10-28T11:35:11.265Z,87616.00
2022-10-28T11:36:11.267Z,87776.00
2022-10-28T11:37:11.243Z,83776.00
2022-10-28T11:38:11.235Z,85536.00
2022-10-28T11:39:11.304Z,86656.00
2022-10-28T11:40:11.215Z,85632.00
2022-10-28T11:41:11.207Z,85792.00
2022-10-28T11:42:11.201Z,86016.00
2022-10-28T11:43:11.181Z,86496.00
2022-10-28T11:44:11.172Z,85888.00
2022-10-28T11:45:11.232Z,85248.00
2022-10-28T11:46:11.150Z,82784.00
2022-10-28T11:47:11.148Z,82752.00
2022-10-28T11:48:11.145Z,83392.00
2022-10-28T11:49:11.116Z,82784.00
2022-10-28T11:50:11.105Z,81440.00
2022-10-28T11:51:11.139Z,80928.00
2022-10-28T11:52:11.085Z,81280.00
2022-10-28T11:53:11.097Z,82752.00
2022-10-28T11:54:11.062Z,83840.00
2022-10-28T11:55:11.047Z,84736.00
2022-10-28T11:56:11.050Z,83776.00
2022-10-28T11:57:11.067Z,83456.00
2022-10-28T11:58:11.378Z,80608.00
2022-10-28T11:59:11.004Z,77440.00
2022-10-28T12:00:11.006Z,76224.00
2022-10-28T12:01:11.068Z,75264.00
2022-10-28T12:02:11.139Z,76192.00
2022-10-28T12:03:11.073Z,76768.00
2022-10-28T12:04:10.970Z,79264.00
2022-10-28T12:05:10.960Z,81600.00
2022-10-28T12:06:10.929Z,79520.00
2022-10-28T12:07:10.918Z,77184.00
2022-10-28T12:08:10.907Z,76064.00
2022-10-28T12:09:10.919Z,76544.00
2022-10-28T12:10:10.895Z,75808.00
2022-10-28T12:11:10.884Z,74656.00
2022-10-28T12:12:10.866Z,74176.00
2022-10-28T12:13:10.864Z,72832.00
2022-10-28T12:14:10.842Z,71680.00
2022-10-28T12:15:10.882Z,70208.00
2022-10-28T12:16:10.832Z,69664.00
2022-10-28T12:17:10.806Z,70400.00
2022-10-28T12:18:10.800Z,71168.00
2022-10-28T12:19:10.786Z,70656.00
2022-10-28T12:20:10.799Z,68320.00
2022-10-28T12:21:10.890Z,66592.00
2022-10-28T12:22:10.766Z,66144.00
2022-10-28T12:23:10.742Z,67680.00
2022-10-28T12:24:10.732Z,68992.00
2022-10-28T12:25:10.776Z,71040.00
2022-10-28T12:26:10.711Z,70560.00
2022-10-28T12:27:15.268Z,71072.00
2022-10-28T12:28:11.848Z,68512.00
2022-10-28T12:29:10.693Z,66336.00
2022-10-28T12:30:10.709Z,67104.00
2022-10-28T12:31:10.653Z,62560.00